createdAt,value
2019-01-16T00:04:37.508Z,100171.80
2019-01-16T00:09:47.497Z,100168.59
2019-01-16T00:14:51.667Z,100166.95
2019-01-16T00:20:02.441Z,100165.93
2019-01-16T00:25:00.252Z,100154.22
2019-01-16T00:30:00.810Z,100139.84
2019-01-16T00:35:16.648Z,100136.93
2019-01-16T00:40:15.059Z,100141.14
2019-01-16T00:50:37.249Z,100142.36
2019-01-16T00:55:35.054Z,100134.22
2019-01-16T01:00:38.876Z,100136.78
2019-01-16T01:05:53.651Z,100131.66
2019-01-16T01:10:51.527Z,100130.54
2019-01-16T01:15:58.802Z,100124.00
2019-01-16T01:21:13.550Z,100123.16
2019-01-16T01:26:20.513Z,100113.77
2019-01-16T01:31:24.362Z,100107.34
2019-01-16T01:36:38.813Z,100113.60
2019-01-16T01:41:39.655Z,100101.59
2019-01-16T01:46:39.968Z,100101.73
2019-01-16T01:51:43.791Z,100097.33
2019-01-16T02:02:00.477Z,100092.53
2019-01-16T02:07:10.434Z,100092.91
2019-01-16T02:12:20.361Z,100095.52
2019-01-16T02:17:36.333Z,100098.08
2019-01-16T02:22:34.255Z,100095.41
2019-01-16T02:27:32.061Z,100100.32
2019-01-16T02:37:52.470Z,100084.34
2019-01-16T02:42:53.333Z,100082.52
2019-01-16T02:47:53.951Z,100076.36
2019-01-16T02:52:54.543Z,100081.94
2019-01-16T02:57:52.485Z,100072.78
2019-01-16T03:02:50.348Z,100076.02
2019-01-16T03:07:51.143Z,100073.03
2019-01-16T03:12:52.024Z,100054.70
2019-01-16T03:18:04.739Z,100059.42
2019-01-16T03:23:20.382Z,100045.90
2019-01-16T03:28:27.251Z,100042.86
2019-01-16T03:33:28.087Z,100032.36
2019-01-16T03:38:44.025Z,100034.19
2019-01-16T03:43:41.855Z,100025.37
2019-01-16T03:48:43.358Z,100016.36
2019-01-16T03:53:44.339Z,100013.18
2019-01-16T03:58:44.924Z,100005.16
2019-01-16T04:09:16.511Z,99999.76
2019-01-16T04:14:14.359Z,99991.32
2019-01-16T04:19:30.181Z,99984.09
2019-01-16T04:24:40.035Z,99977.55
2019-01-16T04:29:37.857Z,99976.56
2019-01-16T04:34:44.783Z,99960.02
2019-01-16T04:39:48.384Z,99969.77
2019-01-16T04:44:52.052Z,99959.06
2019-01-16T04:49:53.379Z,99956.77
2019-01-16T04:54:57.428Z,99959.64
2019-01-16T04:59:57.998Z,99953.23
2019-01-16T05:04:58.351Z,99947.61
2019-01-16T05:10:12.940Z,99940.82
2019-01-16T05:15:16.647Z,99937.92
2019-01-16T05:20:32.812Z,99938.84
2019-01-16T05:25:36.774Z,99941.75
2019-01-16T05:30:51.122Z,99929.81
2019-01-16T05:36:06.627Z,99924.69
2019-01-16T05:41:20.508Z,99928.31
2019-01-16T05:46:24.180Z,99927.30
2019-01-16T05:51:29.704Z,99912.06
2019-01-16T05:56:28.131Z,99904.78
2019-01-16T06:01:33.041Z,99905.97
2019-01-16T06:06:44.255Z,99900.93
2019-01-16T06:17:10.332Z,99898.99
2019-01-16T06:22:10.613Z,99896.63
2019-01-16T06:27:11.858Z,99902.25
2019-01-16T06:32:27.037Z,99889.11
2019-01-16T06:37:42.312Z,99894.59
2019-01-16T06:42:43.016Z,99887.67
2019-01-16T06:47:44.108Z,99891.47
2019-01-16T06:52:50.994Z,99899.21
2019-01-16T06:57:48.792Z,99903.20
2019-01-16T07:02:46.626Z,99902.17
2019-01-16T07:07:47.193Z,99900.73
2019-01-16T07:18:01.336Z,99892.02
2019-01-16T07:23:04.685Z,99894.45
2019-01-16T07:28:19.298Z,99885.14
2019-01-16T07:33:28.779Z,99884.24
2019-01-16T07:38:41.701Z,99894.34
2019-01-16T07:43:42.187Z,99893.65
2019-01-16T07:48:59.434Z,99883.88
2019-01-16T07:54:13.792Z,99885.38
2019-01-16T07:59:21.534Z,99895.09
2019-01-16T08:04:32.182Z,99899.94
2019-01-16T08:09:32.563Z,99897.97
2019-01-16T08:14:47.033Z,99891.66
2019-01-16T08:19:51.316Z,99893.67
2019-01-16T08:24:52.040Z,99895.45
2019-01-16T08:29:55.948Z,99893.09
2019-01-16T08:34:53.849Z,99899.56
2019-01-16T08:39:57.623Z,99887.30
2019-01-16T08:44:57.954Z,99888.44
2019-01-16T08:50:05.263Z,99881.46
2019-01-16T08:55:05.828Z,99872.83
2019-01-16T09:00:06.835Z,99876.68
2019-01-16T09:05:07.592Z,99869.83
2019-01-16T09:10:11.358Z,99864.34
2019-01-16T09:15:10.273Z,99859.84
2019-01-16T09:20:11.201Z,99862.04
2019-01-16T09:25:09.107Z,99847.78
2019-01-16T09:30:10.724Z,99841.92
2019-01-16T09:35:17.375Z,99836.23
2019-01-16T09:40:32.114Z,99837.72
2019-01-16T09:45:46.871Z,99831.25
2019-01-16T09:50:55.737Z,99830.79
2019-01-16T09:55:56.994Z,99828.69
2019-01-16T10:01:07.058Z,99833.87
2019-01-16T10:06:17.532Z,99830.41
2019-01-16T10:11:15.436Z,99811.78
2019-01-16T10:16:25.162Z,99808.78
2019-01-16T10:21:31.962Z,99818.78
2019-01-16T10:26:32.268Z,99805.97
2019-01-16T10:31:38.777Z,99793.19
2019-01-16T10:36:42.398Z,99788.83
2019-01-16T10:41:57.162Z,99785.41
2019-01-16T10:46:57.731Z,99777.50
2019-01-16T10:52:12.637Z,99761.61
2019-01-16T10:57:19.498Z,99755.11
2019-01-16T11:02:29.208Z,99763.87
2019-01-16T11:07:42.116Z,99748.89
2019-01-16T11:12:42.932Z,99744.17
2019-01-16T11:17:40.852Z,99746.27
2019-01-16T11:22:55.267Z,99741.59
2019-01-16T11:27:59.161Z,99734.73
2019-01-16T11:33:06.284Z,99727.59
2019-01-16T11:38:06.911Z,99705.89
2019-01-16T11:43:07.717Z,99705.33
2019-01-16T11:48:23.863Z,99707.86
2019-01-16T11:53:21.672Z,99696.30
2019-01-16T11:58:25.523Z,99695.11
2019-01-16T12:03:26.092Z,99684.47
2019-01-16T12:08:26.672Z,99674.64
2019-01-16T12:13:36.817Z,99655.01
2019-01-16T12:18:34.632Z,99662.72
2019-01-16T12:23:35.235Z,99655.80
2019-01-16T12:28:33.066Z,99646.57
2019-01-16T12:33:33.407Z,99649.74
2019-01-16T12:38:48.420Z,99643.75
2019-01-16T12:43:49.407Z,99632.44
2019-01-16T12:49:06.047Z,99647.34
2019-01-16T12:54:06.834Z,99622.41
2019-01-16T12:59:10.787Z,99619.83
2019-01-16T13:04:08.614Z,99617.06
2019-01-16T13:09:17.416Z,99596.48
2019-01-16T13:14:17.991Z,99601.55
2019-01-16T13:24:41.082Z,99575.00
2019-01-16T13:29:38.915Z,99557.54
2019-01-16T13:34:53.792Z,99562.17
2019-01-16T13:45:13.525Z,99551.61
2019-01-16T13:50:30.041Z,99540.09
2019-01-16T13:55:39.958Z,99537.01
2019-01-16T14:00:40.754Z,99543.25
2019-01-16T14:05:38.572Z,99539.34
2019-01-16T14:10:45.604Z,99533.17
2019-01-16T14:15:46.475Z,99508.00
2019-01-16T14:21:00.938Z,99508.00
2019-01-16T14:26:15.631Z,99522.36
2019-01-16T14:31:29.844Z,99520.63
2019-01-16T14:36:30.682Z,99499.85
2019-01-16T14:41:44.772Z,99461.88
2019-01-16T14:46:48.560Z,99454.66
2019-01-16T14:51:52.254Z,99479.72
2019-01-16T14:57:06.824Z,99498.83
2019-01-16T15:02:10.893Z,99464.77
2019-01-16T15:07:11.460Z,99478.33
2019-01-16T15:12:09.284Z,99460.14
2019-01-16T15:17:13.122Z,99442.97
2019-01-16T15:22:28.117Z,99442.54
2019-01-16T15:27:29.030Z,99440.72
2019-01-16T15:32:39.144Z,99445.69
2019-01-16T15:37:39.792Z,99429.69
2019-01-16T15:42:40.646Z,99424.15
2019-01-16T15:47:38.461Z,99429.29
2019-01-16T15:52:53.168Z,99416.80
2019-01-16T15:58:06.049Z,99412.05
2019-01-16T16:03:04.245Z,99422.19
2019-01-16T16:08:02.170Z,99423.23
2019-01-16T16:13:02.791Z,99420.40
2019-01-16T16:18:15.646Z,99401.22
2019-01-16T16:23:16.899Z,99396.52
2019-01-16T16:28:21.376Z,99382.63
2019-01-16T16:33:20.066Z,99371.52
2019-01-16T16:38:17.985Z,99368.59
2019-01-16T16:43:18.116Z,99357.36
2019-01-16T16:48:25.182Z,99339.77
2019-01-16T16:53:26.705Z,99334.12
2019-01-16T16:58:36.935Z,99336.76
2019-01-16T17:14:14.803Z,99326.30
2019-01-16T17:19:33.046Z,99323.31
2019-01-16T17:24:46.048Z,99308.25
2019-01-16T17:29:43.854Z,99289.69
2019-01-16T17:34:41.840Z,99289.98
2019-01-16T17:39:48.827Z,99266.80
2019-01-16T17:44:58.956Z,99266.58
2019-01-16T17:50:06.157Z,99258.44
2019-01-16T17:55:22.861Z,99258.05
2019-01-16T18:00:36.034Z,99259.16
2019-01-16T18:05:42.639Z,99255.23
2019-01-16T18:10:40.456Z,99254.42
2019-01-16T18:15:56.591Z,99254.34
2019-01-16T18:20:54.397Z,99245.66
2019-01-16T18:26:02.411Z,99246.09
2019-01-16T18:31:03.764Z,99249.41
2019-01-16T18:36:13.725Z,99245.19
2019-01-16T18:41:26.894Z,99237.64
2019-01-16T18:46:24.718Z,99229.42
2019-01-16T18:51:38.130Z,99221.81
2019-01-16T18:56:38.806Z,99213.56
2019-01-16T19:01:36.641Z,99208.11
2019-01-16T19:06:43.809Z,99194.98
2019-01-16T19:11:47.631Z,99201.51
2019-01-16T19:16:54.368Z,99195.56
2019-01-16T19:21:52.180Z,99193.30
2019-01-16T19:26:52.996Z,99188.66
2019-01-16T19:31:59.810Z,99172.13
2019-01-16T19:37:14.071Z,99171.52
2019-01-16T19:42:11.885Z,99165.96
2019-01-16T19:47:09.799Z,99162.59
2019-01-16T19:52:10.462Z,99159.38
2019-01-16T19:57:17.183Z,99150.73
2019-01-16T20:02:15.209Z,99137.19
2019-01-16T20:07:13.134Z,99125.73
2019-01-16T20:12:17.195Z,99128.66
2019-01-16T20:17:20.777Z,99133.28
2019-01-16T20:22:21.359Z,99124.74
2019-01-16T20:27:19.281Z,99103.14
2019-01-16T20:32:17.086Z,99103.36
2019-01-16T20:37:20.514Z,99099.37
2019-01-16T20:42:34.685Z,99080.80
2019-01-16T20:47:42.254Z,99079.19
2019-01-16T20:52:48.900Z,99083.10
2019-01-16T20:57:52.726Z,99078.47
2019-01-16T21:02:59.148Z,99073.14
2019-01-16T21:07:56.949Z,99073.04
2019-01-16T21:12:54.756Z,99073.76
2019-01-16T21:18:19.376Z,99060.91
2019-01-16T21:23:34.255Z,99055.86
2019-01-16T21:28:38.252Z,99056.37
2019-01-16T21:33:44.823Z,99055.07
2019-01-16T21:38:42.730Z,99040.81
2019-01-16T21:43:53.022Z,99035.70
2019-01-16T21:48:58.964Z,99031.68
2019-01-16T21:53:56.863Z,99024.84
2019-01-16T21:58:57.452Z,99029.38
2019-01-16T22:03:58.311Z,99023.44
2019-01-16T22:08:58.901Z,99009.59
2019-01-16T22:14:11.978Z,99008.30
2019-01-16T22:19:16.233Z,99007.78
2019-01-16T22:24:31.320Z,99006.38
2019-01-16T22:29:29.129Z,98988.53
2019-01-16T22:34:29.670Z,98983.20
2019-01-16T22:39:44.323Z,98988.22
2019-01-16T22:44:42.118Z,98976.89
2019-01-16T22:49:49.877Z,98960.66
2019-01-16T22:55:04.489Z,98959.84
2019-01-16T23:00:02.294Z,98954.73
2019-01-16T23:05:12.458Z,98942.09
2019-01-16T23:10:25.630Z,98944.39
2019-01-16T23:15:29.206Z,98951.63
2019-01-16T23:20:27.007Z,98933.16
2019-01-16T23:25:24.822Z,98928.52
2019-01-16T23:30:34.989Z,98939.77
2019-01-16T23:35:39.463Z,98929.66
2019-01-16T23:40:37.366Z,98924.04
2019-01-16T23:45:41.229Z,98927.18
2019-01-16T23:50:57.051Z,98912.49
2019-01-16T23:55:54.894Z,98918.63
